Time;durP1;ratioP1;P1;durP2;ratioP2;P2;SDS_P1;SDS_P2;PMS_P1;PMS_P2;Temp;Humidity;BMP_temperature;BMP_pressure;BME280_temperature;BME280_humidity;BME280_pressure;Samples;Min_cycle;Max_cycle;Signal;HPM_P1;HPM_P2
2020/12/13 00:00:11;;;;;;;142.70;52.15;;;10.30;99.90;;;;;;5060029;28;20105;-72
2020/12/13 00:02:37;;;;;;;147.48;52.35;;;10.20;99.90;;;;;;5060401;28;20025;-72
2020/12/13 00:05:03;;;;;;;138.98;51.13;;;10.20;99.90;;;;;;5056135;28;20025;-72
2020/12/13 00:07:28;;;;;;;125.93;49.70;;;10.30;99.90;;;;;;5056300;28;20111;-72
2020/12/13 00:09:54;;;;;;;133.90;52.08;;;10.30;99.90;;;;;;5053547;28;20041;-72
2020/12/13 00:12:20;;;;;;;118.30;48.65;;;10.20;99.90;;;;;;5051310;28;20028;-72
2020/12/13 00:14:45;;;;;;;113.15;45.13;;;10.10;99.90;;;;;;5051267;28;20111;-72
2020/12/13 00:17:11;;;;;;;134.75;48.83;;;10.20;99.90;;;;;;5058133;28;20045;-72
2020/12/13 00:19:36;;;;;;;124.60;46.95;;;10.20;99.90;;;;;;5053670;28;20032;-72
2020/12/13 00:22:02;;;;;;;129.02;48.15;;;10.20;99.90;;;;;;5054580;28;20090;-72
2020/12/13 00:24:28;;;;;;;131.27;50.50;;;10.20;99.90;;;;;;5051727;28;20500;-72
2020/12/13 00:26:53;;;;;;;133.02;51.70;;;10.20;99.90;;;;;;5058024;28;20016;-72
2020/12/13 00:29:19;;;;;;;127.47;49.20;;;10.20;99.90;;;;;;5058082;28;20051;-72
2020/12/13 00:31:45;;;;;;;155.32;55.45;;;10.20;99.90;;;;;;5056039;28;20035;-72
2020/12/13 00:34:10;;;;;;;139.10;50.00;;;10.20;99.90;;;;;;5055955;28;20042;-72
2020/12/13 00:36:36;;;;;;;143.23;51.40;;;10.10;99.90;;;;;;5056684;28;20025;-72
2020/12/13 00:39:03;;;;;;;152.23;51.65;;;10.20;99.90;;;;;;5057325;28;20040;-72
2020/12/13 00:41:29;;;;;;;128.50;47.53;;;10.20;99.90;;;;;;5062165;28;20036;-72
2020/12/13 00:43:54;;;;;;;135.13;49.25;;;10.20;99.90;;;;;;5061160;28;20078;-72
2020/12/13 00:46:20;;;;;;;132.38;49.78;;;10.20;99.90;;;;;;5069168;28;20056;-72
2020/12/13 00:48:46;;;;;;;141.70;49.70;;;10.20;99.90;;;;;;5056390;28;20067;-72
2020/12/13 00:51:11;;;;;;;132.55;48.75;;;10.20;99.90;;;;;;5053489;28;20055;-73
2020/12/13 00:53:37;;;;;;;141.02;49.80;;;10.10;99.90;;;;;;5055365;28;20060;-72
2020/12/13 00:56:03;;;;;;;133.95;48.55;;;10.10;99.90;;;;;;5055975;28;20029;-72
2020/12/13 00:58:28;;;;;;;164.65;52.83;;;10.20;99.90;;;;;;5055911;28;20028;-72
2020/12/13 01:00:55;;;;;;;155.70;50.90;;;10.20;99.90;;;;;;5053974;28;20025;-72
2020/12/13 01:03:20;;;;;;;143.55;49.50;;;10.30;99.90;;;;;;5059219;28;20036;-73
2020/12/13 01:05:46;;;;;;;146.20;49.28;;;10.30;99.90;;;;;;5059258;28;20810;-72
2020/12/13 01:08:11;;;;;;;156.02;52.50;;;10.30;99.90;;;;;;5054914;28;20598;-73
2020/12/13 01:10:38;;;;;;;143.00;52.17;;;10.30;99.90;;;;;;5057719;28;20029;-73
2020/12/13 01:13:04;;;;;;;144.38;47.83;;;10.20;99.90;;;;;;5062801;28;20032;-72
2020/12/13 01:15:29;;;;;;;124.40;45.85;;;10.20;99.90;;;;;;5057056;28;20025;-72
2020/12/13 01:17:55;;;;;;;125.63;46.95;;;10.20;99.90;;;;;;5057772;28;20439;-72
2020/12/13 01:20:21;;;;;;;130.00;48.17;;;10.20;99.90;;;;;;5048676;28;20036;-72
2020/12/13 01:22:47;;;;;;;115.32;45.13;;;10.20;99.90;;;;;;5058621;28;20021;-72
2020/12/13 01:25:13;;;;;;;103.90;43.45;;;10.20;99.90;;;;;;5062731;28;20024;-72
2020/12/13 01:27:39;;;;;;;118.93;44.80;;;10.10;99.90;;;;;;5057741;28;20077;-72
2020/12/13 01:30:09;;;;;;;111.88;44.50;;;10.20;99.90;;;;;;5056141;28;20436;-72
2020/12/13 01:32:42;;;;;;;110.85;42.20;;;10.20;99.90;;;;;;5058195;28;20103;-72
2020/12/13 01:35:09;;;;;;;111.78;44.78;;;10.20;99.90;;;;;;5059878;28;20036;-72
2020/12/13 01:37:35;;;;;;;102.82;41.42;;;10.20;99.90;;;;;;5052606;28;20052;-72
2020/12/13 01:40:06;;;;;;;122.63;42.70;;;10.20;99.90;;;;;;5055140;28;20392;-72
2020/12/13 01:42:43;;;;;;;109.80;43.38;;;10.20;99.90;;;;;;5056632;28;20043;-72
2020/12/13 01:45:12;;;;;;;104.55;40.55;;;10.20;99.90;;;;;;5055139;28;20174;-72
2020/12/13 01:47:38;;;;;;;103.13;40.83;;;10.10;99.90;;;;;;5059525;28;20063;-72
2020/12/13 01:50:07;;;;;;;109.18;41.53;;;10.20;99.90;;;;;;5057424;28;20533;-72
2020/12/13 01:52:44;;;;;;;108.65;42.38;;;10.20;99.90;;;;;;5049630;28;20100;-72
2020/12/13 01:55:13;;;;;;;104.90;40.50;;;10.20;99.90;;;;;;5059027;28;20090;-72
2020/12/13 01:57:40;;;;;;;110.35;40.45;;;10.20;99.90;;;;;;5055564;28;20048;-72
2020/12/13 02:00:05;;;;;;;111.00;40.78;;;10.30;99.90;;;;;;5053873;28;20036;-72
2020/12/13 02:02:37;;;;;;;116.82;41.47;;;10.20;99.90;;;;;;5053087;28;20032;-72
2020/12/13 02:05:04;;;;;;;110.82;40.33;;;10.20;99.90;;;;;;5063656;28;20020;-73
2020/12/13 02:07:30;;;;;;;126.97;43.10;;;10.10;99.90;;;;;;5059500;28;20024;-72
2020/12/13 02:09:58;;;;;;;115.57;43.30;;;10.10;99.90;;;;;;5066574;28;20024;-72
2020/12/13 02:12:24;;;;;;;129.77;44.45;;;10.10;99.90;;;;;;5055844;28;20043;-72
2020/12/13 02:14:50;;;;;;;124.53;44.25;;;10.10;99.90;;;;;;5057977;28;20054;-72
2020/12/13 02:17:16;;;;;;;122.63;42.97;;;10.10;99.90;;;;;;5059115;28;20420;-72
2020/12/13 02:19:41;;;;;;;127.50;45.05;;;10.10;99.90;;;;;;5061106;28;20473;-72
2020/12/13 02:22:11;;;;;;;128.43;44.00;;;10.10;99.90;;;;;;5055556;28;20044;-72
2020/12/13 02:24:37;;;;;;;125.30;42.78;;;10.10;99.90;;;;;;5058502;28;20020;-72
2020/12/13 02:27:07;;;;;;;117.15;40.47;;;10.10;99.90;;;;;;5061861;28;20031;-72
2020/12/13 02:29:32;;;;;;;117.90;43.45;;;10.10;99.90;;;;;;5062406;28;20039;-72
2020/12/13 02:31:58;;;;;;;111.85;41.25;;;10.10;99.90;;;;;;5055047;28;20477;-73
2020/12/13 02:34:24;;;;;;;102.22;38.95;;;10.10;99.90;;;;;;5054749;28;20025;-72
2020/12/13 02:36:49;;;;;;;102.18;38.25;;;10.10;99.90;;;;;;5054312;28;20040;-72
2020/12/13 02:39:15;;;;;;;102.28;37.95;;;10.10;99.90;;;;;;5061858;28;20103;-73
2020/12/13 02:41:41;;;;;;;83.53;33.22;;;10.10;99.90;;;;;;5062925;28;20072;-72
2020/12/13 02:44:06;;;;;;;76.68;31.98;;;10.10;99.90;;;;;;5056706;28;20035;-72
2020/12/13 02:46:32;;;;;;;85.07;32.85;;;10.00;99.90;;;;;;5057541;28;20033;-72
2020/12/13 02:48:58;;;;;;;79.50;32.55;;;10.10;99.90;;;;;;5061236;28;20022;-72
2020/12/13 02:51:24;;;;;;;83.90;33.50;;;10.10;99.90;;;;;;5063151;28;20063;-73
2020/12/13 02:53:50;;;;;;;76.75;31.27;;;10.10;99.90;;;;;;5055343;28;20035;-72
2020/12/13 02:56:15;;;;;;;72.25;29.33;;;10.10;99.90;;;;;;5062458;28;20083;-72
2020/12/13 02:58:41;;;;;;;75.00;30.55;;;10.00;99.90;;;;;;5056814;28;20032;-72
2020/12/13 03:01:08;;;;;;;83.72;31.75;;;10.10;99.90;;;;;;5062060;28;20071;-72
2020/12/13 03:03:34;;;;;;;77.63;30.33;;;10.00;99.90;;;;;;5056696;28;20029;-72
2020/12/13 03:06:00;;;;;;;76.57;31.25;;;10.10;99.90;;;;;;5057059;28;20071;-73
2020/12/13 03:08:25;;;;;;;79.28;31.48;;;10.10;99.90;;;;;;5063044;28;20032;-72
2020/12/13 03:10:51;;;;;;;84.13;33.15;;;10.10;99.90;;;;;;5059498;28;20033;-73
2020/12/13 03:13:16;;;;;;;85.78;35.35;;;10.10;99.90;;;;;;5057984;28;20513;-72
2020/12/13 03:15:42;;;;;;;93.50;34.88;;;10.00;99.90;;;;;;5054183;28;20028;-73
2020/12/13 03:18:08;;;;;;;88.13;35.75;;;10.10;99.90;;;;;;5057537;28;20068;-72
2020/12/13 03:20:33;;;;;;;91.55;37.22;;;10.10;99.90;;;;;;5064901;28;20020;-72
2020/12/13 03:22:59;;;;;;;90.70;37.20;;;10.00;99.90;;;;;;5061006;28;20131;-74
2020/12/13 03:25:24;;;;;;;100.88;39.42;;;10.00;99.90;;;;;;5064443;28;20533;-72
2020/12/13 03:27:50;;;;;;;104.28;39.30;;;10.00;99.90;;;;;;5057253;28;20044;-73
2020/12/13 03:30:16;;;;;;;106.22;41.22;;;10.00;99.90;;;;;;5056844;28;20072;-73
2020/12/13 03:32:41;;;;;;;116.45;43.88;;;10.00;99.90;;;;;;5053988;28;20025;-73
2020/12/13 03:35:07;;;;;;;117.03;43.97;;;10.00;99.90;;;;;;5053034;28;20390;-73
2020/12/13 03:37:32;;;;;;;113.50;43.20;;;9.90;99.90;;;;;;5058060;28;20025;-74
2020/12/13 03:39:58;;;;;;;118.75;45.15;;;9.90;99.90;;;;;;5060462;28;20514;-74
2020/12/13 03:42:24;;;;;;;115.03;44.38;;;9.90;99.90;;;;;;5058468;28;20035;-74
2020/12/13 03:44:49;;;;;;;103.35;41.08;;;9.90;99.90;;;;;;5056733;28;20100;-74
2020/12/13 03:47:15;;;;;;;108.93;42.40;;;9.90;99.90;;;;;;5056597;28;20415;-74
2020/12/13 03:49:41;;;;;;;102.72;39.55;;;9.90;99.90;;;;;;5057965;28;20052;-74
2020/12/13 03:52:06;;;;;;;100.68;40.88;;;9.80;99.90;;;;;;5056290;28;20090;-73
2020/12/13 03:54:32;;;;;;;100.85;40.22;;;9.70;99.90;;;;;;5052509;28;20025;-73
2020/12/13 03:56:58;;;;;;;108.90;43.20;;;9.80;99.90;;;;;;5065307;28;20033;-73
2020/12/13 03:59:23;;;;;;;94.80;39.13;;;9.80;99.90;;;;;;5058516;28;20031;-73
2020/12/13 04:01:49;;;;;;;111.00;43.72;;;9.80;99.90;;;;;;5059663;28;20459;-73
2020/12/13 04:04:14;;;;;;;98.95;40.78;;;9.90;99.90;;;;;;5055265;28;20389;-73
2020/12/13 04:06:40;;;;;;;104.28;41.10;;;9.90;99.90;;;;;;5063064;28;20385;-73
2020/12/13 04:09:05;;;;;;;93.63;39.53;;;9.90;99.90;;;;;;5057807;28;20171;-73
2020/12/13 04:11:31;;;;;;;91.32;37.15;;;9.90;99.90;;;;;;5063361;28;20079;-73
2020/12/13 04:13:57;;;;;;;88.75;36.67;;;9.80;99.90;;;;;;5053839;28;20056;-73
2020/12/13 04:16:23;;;;;;;97.88;38.22;;;9.90;99.90;;;;;;5059199;28;20039;-73
2020/12/13 04:18:48;;;;;;;83.13;37.25;;;9.90;99.90;;;;;;5056517;28;20021;-73
2020/12/13 04:21:14;;;;;;;85.05;34.28;;;9.90;99.90;;;;;;5062978;28;20078;-73
2020/12/13 04:23:40;;;;;;;92.72;35.97;;;9.80;99.90;;;;;;5055458;28;20056;-73
2020/12/13 04:26:05;;;;;;;77.15;32.58;;;9.80;99.90;;;;;;5061616;28;20369;-74
2020/12/13 04:28:31;;;;;;;83.85;34.47;;;9.80;99.90;;;;;;5059069;28;20064;-74
2020/12/13 04:30:56;;;;;;;86.78;35.40;;;9.80;99.90;;;;;;5064332;28;20029;-74
2020/12/13 04:33:22;;;;;;;95.43;36.38;;;9.80;99.90;;;;;;5060431;28;20489;-74
2020/12/13 04:35:47;;;;;;;83.28;37.53;;;9.80;99.90;;;;;;5059704;28;20044;-73
2020/12/13 04:38:13;;;;;;;85.95;37.00;;;9.70;99.90;;;;;;5060748;28;20543;-73
2020/12/13 04:40:39;;;;;;;94.97;39.03;;;9.70;99.90;;;;;;5059606;28;20552;-73
2020/12/13 04:43:04;;;;;;;88.82;38.38;;;9.70;99.90;;;;;;5059583;28;20127;-73
2020/12/13 04:45:30;;;;;;;84.38;34.63;;;9.70;99.90;;;;;;5052407;28;20036;-73
2020/12/13 04:48:05;;;;;;;77.60;34.60;;;9.70;99.90;;;;;;5058185;28;20024;-73
2020/12/13 04:50:36;;;;;;;82.05;36.03;;;9.70;99.90;;;;;;5060738;28;20050;-73
2020/12/13 04:53:09;;;;;;;65.78;31.92;;;9.70;99.90;;;;;;5057487;28;20025;-73
2020/12/13 04:56:01;;;;;;;72.72;33.72;;;9.70;99.90;;;;;;5059903;28;20029;-73
2020/12/13 04:58:28;;;;;;;74.80;31.98;;;9.60;99.90;;;;;;5063728;28;20428;-74
2020/12/13 05:00:55;;;;;;;73.88;33.28;;;9.60;99.90;;;;;;5052742;28;20529;-74
2020/12/13 05:03:22;;;;;;;72.55;31.58;;;9.60;99.90;;;;;;5057304;28;20040;-73
2020/12/13 05:05:48;;;;;;;67.70;30.50;;;9.60;99.90;;;;;;5058913;28;20505;-73
2020/12/13 05:08:14;;;;;;;59.65;28.27;;;9.50;99.90;;;;;;5060325;28;20056;-73
2020/12/13 05:10:39;;;;;;;62.72;29.25;;;9.40;99.90;;;;;;5060646;28;20016;-73
2020/12/13 05:13:07;;;;;;;59.70;27.98;;;9.50;99.90;;;;;;5060421;28;20028;-74
2020/12/13 05:15:34;;;;;;;62.05;27.33;;;9.40;99.90;;;;;;5066041;28;20100;-73
2020/12/13 05:18:01;;;;;;;56.15;26.73;;;9.60;99.90;;;;;;5063178;28;20547;-72
2020/12/13 05:20:27;;;;;;;55.70;26.95;;;9.50;99.90;;;;;;5062573;28;20027;-73
2020/12/13 05:22:57;;;;;;;55.80;26.40;;;9.60;99.90;;;;;;5052512;28;20120;-72
2020/12/13 05:25:36;;;;;;;57.55;24.17;;;9.60;99.90;;;;;;5058475;28;20071;-72
2020/12/13 05:28:04;;;;;;;57.28;24.30;;;9.50;99.90;;;;;;5052362;28;20036;-73
2020/12/13 05:30:37;;;;;;;55.08;23.13;;;9.50;99.90;;;;;;5061408;28;20033;-72
2020/12/13 05:33:36;;;;;;;52.88;23.38;;;9.40;99.90;;;;;;5061417;28;20032;-72
2020/12/13 05:36:04;;;;;;;49.33;22.23;;;9.50;99.90;;;;;;5058806;28;20033;-73
2020/12/13 05:38:37;;;;;;;41.05;21.33;;;9.50;99.90;;;;;;5060703;28;20086;-72
2020/12/13 05:41:04;;;;;;;46.55;19.75;;;9.40;99.90;;;;;;5060255;28;20040;-73
2020/12/13 05:43:35;;;;;;;54.97;21.48;;;9.40;99.90;;;;;;5058565;28;20111;-73
2020/12/13 05:51:07;;;;;;;43.88;19.65;;;9.40;99.90;;;;;;5061637;28;20111;-72
2020/12/13 05:53:33;;;;;;;48.13;19.58;;;9.40;99.90;;;;;;5059031;28;20039;-73
2020/12/13 05:55:58;;;;;;;50.45;19.63;;;9.40;99.90;;;;;;5057043;28;20033;-72
2020/12/13 05:58:27;;;;;;;46.03;18.42;;;9.40;99.90;;;;;;5054868;28;20032;-72
2020/12/13 06:00:54;;;;;;;45.38;18.27;;;9.40;99.90;;;;;;5057271;28;20032;-72
2020/12/13 06:03:34;;;;;;;46.60;19.92;;;9.40;99.90;;;;;;5057695;28;20067;-73
2020/12/13 06:06:04;;;;;;;52.45;18.30;;;9.40;99.90;;;;;;5057941;28;20424;-72
2020/12/13 06:09:13;;;;;;;43.70;18.85;;;9.50;99.90;;;;;;5060610;28;20017;-72
2020/12/13 06:11:49;;;;;;;48.75;18.23;;;9.40;99.90;;;;;;5023593;28;20505;-74
2020/12/13 06:14:21;;;;;;;49.47;19.33;;;9.40;99.90;;;;;;5025639;28;20449;-73
2020/12/13 06:16:48;;;;;;;39.58;17.55;;;9.50;99.90;;;;;;5040212;28;20036;-73
2020/12/13 06:19:16;;;;;;;46.92;18.45;;;9.40;99.90;;;;;;5053175;28;20036;-73
2020/12/13 06:21:43;;;;;;;36.58;16.40;;;9.40;99.90;;;;;;5062397;28;20028;-73
2020/12/13 06:24:09;;;;;;;44.25;17.40;;;9.40;99.90;;;;;;5053528;28;20033;-73
2020/12/13 06:26:35;;;;;;;40.83;18.60;;;9.40;99.90;;;;;;5051633;28;20078;-74
2020/12/13 06:29:02;;;;;;;39.33;15.75;;;9.40;99.90;;;;;;5053865;28;20477;-73
2020/12/13 06:31:28;;;;;;;40.47;16.10;;;9.40;99.90;;;;;;5056118;28;20034;-74
2020/12/13 06:33:53;;;;;;;42.47;15.82;;;9.40;99.90;;;;;;5055974;28;20104;-74
2020/12/13 06:36:24;;;;;;;38.08;15.45;;;9.40;99.90;;;;;;5060457;28;20108;-73
2020/12/13 06:38:55;;;;;;;46.35;16.83;;;9.40;99.90;;;;;;5050641;28;20075;-73
2020/12/13 06:41:27;;;;;;;41.88;14.70;;;9.40;99.90;;;;;;5058390;28;20505;-73
2020/12/13 06:43:55;;;;;;;40.17;15.15;;;9.30;99.90;;;;;;5061102;28;20036;-73
2020/12/13 06:46:26;;;;;;;39.53;15.00;;;9.40;99.90;;;;;;5062764;28;20079;-73
2020/12/13 06:48:52;;;;;;;37.03;14.13;;;9.40;99.90;;;;;;5053266;28;20029;-73
2020/12/13 06:51:27;;;;;;;29.90;13.10;;;9.40;99.90;;;;;;5063386;28;20032;-72
2020/12/13 06:53:53;;;;;;;33.30;13.75;;;9.30;99.90;;;;;;5068617;28;20074;-73
2020/12/13 06:56:20;;;;;;;38.13;14.02;;;9.40;99.90;;;;;;5057114;28;20033;-72
2020/12/13 06:58:57;;;;;;;36.03;13.48;;;9.40;99.90;;;;;;5060291;28;20112;-72
2020/12/13 07:01:46;;;;;;;36.33;12.63;;;9.40;99.90;;;;;;5061329;28;20059;-72
2020/12/13 07:04:24;;;;;;;29.85;13.80;;;9.30;99.90;;;;;;5060919;28;20481;-73
2020/12/13 07:06:55;;;;;;;35.03;13.38;;;9.30;99.90;;;;;;5057597;28;20111;-72
2020/12/13 07:09:21;;;;;;;36.95;12.88;;;9.30;99.90;;;;;;5059656;28;20028;-72
2020/12/13 07:11:49;;;;;;;30.40;11.80;;;9.30;99.90;;;;;;5058076;28;20040;-72
2020/12/13 07:14:16;;;;;;;29.55;11.82;;;9.30;99.90;;;;;;5063077;28;20025;-73
2020/12/13 07:16:46;;;;;;;37.25;14.20;;;9.30;99.90;;;;;;5062514;28;20029;-74
2020/12/13 07:19:17;;;;;;;32.65;12.25;;;9.30;99.90;;;;;;5059998;28;20029;-74
2020/12/13 07:21:44;;;;;;;32.47;15.15;;;9.30;99.90;;;;;;5062428;28;20021;-73
2020/12/13 07:24:10;;;;;;;41.03;14.57;;;9.30;99.90;;;;;;5059716;28;20048;-73
2020/12/13 07:26:38;;;;;;;44.00;18.23;;;9.30;99.90;;;;;;5060914;28;20017;-74
2020/12/13 07:29:13;;;;;;;44.97;19.05;;;9.40;99.90;;;;;;5064163;28;20366;-74
2020/12/13 07:31:44;;;;;;;49.92;19.80;;;9.30;99.90;;;;;;5063281;28;20517;-74
2020/12/13 07:34:09;;;;;;;45.75;20.65;;;9.30;99.90;;;;;;5063827;28;20064;-72
2020/12/13 07:36:35;;;;;;;48.83;19.80;;;9.30;99.90;;;;;;5060197;28;20059;-74
2020/12/13 07:39:03;;;;;;;46.42;19.48;;;9.30;99.90;;;;;;5054131;28;20496;-74
2020/12/13 07:41:29;;;;;;;40.35;18.10;;;9.40;99.90;;;;;;5057741;28;20029;-73
2020/12/13 07:44:09;;;;;;;36.38;17.85;;;9.40;99.90;;;;;;5058779;28;20082;-72
2020/12/13 07:46:35;;;;;;;47.13;17.15;;;9.40;99.90;;;;;;5056415;28;20026;-72
2020/12/13 07:49:21;;;;;;;46.00;17.52;;;9.40;99.90;;;;;;5054772;28;20055;-72
2020/12/13 07:51:51;;;;;;;37.95;16.15;;;9.30;99.90;;;;;;5059495;28;20111;-72
2020/12/13 07:54:19;;;;;;;34.00;15.02;;;9.40;99.90;;;;;;5053850;28;20478;-73
2020/12/13 07:56:50;;;;;;;31.42;13.82;;;9.30;99.90;;;;;;5064116;28;20029;-72
2020/12/13 07:59:21;;;;;;;29.98;13.32;;;9.20;99.90;;;;;;5062497;28;20377;-72
2020/12/13 08:01:51;;;;;;;31.50;14.82;;;9.10;99.90;;;;;;5062035;28;20036;-72
2020/12/13 08:04:32;;;;;;;38.45;15.30;;;9.20;99.90;;;;;;5055602;28;20515;-72
2020/12/13 08:07:00;;;;;;;38.35;13.60;;;9.20;99.90;;;;;;5058276;28;20029;-72
2020/12/13 08:09:26;;;;;;;37.63;13.45;;;9.20;99.90;;;;;;5057805;28;20170;-72
2020/12/13 08:11:52;;;;;;;37.40;12.93;;;9.20;99.90;;;;;;5059769;28;20048;-73
2020/12/13 08:14:20;;;;;;;31.38;12.88;;;9.20;99.90;;;;;;5052845;28;20110;-72
2020/12/13 08:16:55;;;;;;;38.45;13.88;;;9.10;99.90;;;;;;5066012;28;20028;-72
2020/12/13 08:19:33;;;;;;;33.80;13.23;;;9.20;99.90;;;;;;5058454;28;20500;-72
2020/12/13 08:22:08;;;;;;;28.48;12.95;;;9.20;99.90;;;;;;5053684;28;20127;-72
2020/12/13 08:24:33;;;;;;;28.42;12.82;;;9.20;99.90;;;;;;5053955;28;20028;-72
2020/12/13 08:27:01;;;;;;;27.55;12.50;;;9.20;99.90;;;;;;5056450;28;20037;-72
2020/12/13 08:29:31;;;;;;;34.53;13.15;;;9.20;99.90;;;;;;5056090;28;20029;-73
2020/12/13 08:31:57;;;;;;;31.73;12.48;;;9.20;99.90;;;;;;5056366;28;20363;-72
2020/12/13 08:34:29;;;;;;;37.15;14.10;;;9.20;99.90;;;;;;5050140;28;20032;-72
2020/12/13 08:36:59;;;;;;;36.80;13.40;;;9.30;99.90;;;;;;5061894;28;20025;-72
2020/12/13 08:39:30;;;;;;;29.30;12.05;;;9.20;99.90;;;;;;5057225;28;20540;-72
2020/12/13 08:41:57;;;;;;;26.00;11.50;;;9.30;99.90;;;;;;5052353;28;20040;-72
2020/12/13 08:44:41;;;;;;;26.65;11.38;;;9.30;99.90;;;;;;5056726;28;20098;-72
2020/12/13 08:47:08;;;;;;;24.38;12.25;;;9.30;99.90;;;;;;5057637;28;20031;-71
2020/12/13 08:49:37;;;;;;;29.17;11.95;;;9.20;99.90;;;;;;5059140;28;20024;-71
2020/12/13 08:52:15;;;;;;;22.58;11.48;;;9.30;99.90;;;;;;5059856;28;20010;-74
2020/12/13 08:54:54;;;;;;;30.42;12.98;;;9.30;99.90;;;;;;5059618;28;20032;-75
2020/12/13 08:57:29;;;;;;;25.05;11.55;;;9.30;99.90;;;;;;5065191;28;20021;-72
2020/12/13 09:00:05;;;;;;;29.95;11.32;;;9.30;99.90;;;;;;5057768;28;20423;-72
2020/12/13 09:02:31;;;;;;;92.25;47.65;;;9.30;99.90;;;;;;5062111;28;20033;-73
2020/12/13 09:04:58;;;;;;;71.47;37.38;;;9.20;99.90;;;;;;5057354;28;20470;-72
2020/12/13 09:07:24;;;;;;;44.17;18.65;;;9.30;99.90;;;;;;5062175;28;20017;-74
2020/12/13 09:09:50;;;;;;;29.85;13.88;;;9.40;99.90;;;;;;5069259;28;20094;-74
2020/12/13 09:12:20;;;;;;;32.08;12.23;;;9.40;99.90;;;;;;5058904;28;20055;-72
2020/12/13 09:14:47;;;;;;;27.17;11.63;;;9.40;99.90;;;;;;5059640;28;20408;-72
2020/12/13 09:17:23;;;;;;;30.08;12.23;;;9.40;99.90;;;;;;5050395;28;20032;-72
2020/12/13 09:19:50;;;;;;;27.25;11.57;;;9.50;99.90;;;;;;5065579;28;20363;-72
2020/12/13 09:22:20;;;;;;;25.55;10.55;;;9.50;99.90;;;;;;5052708;28;20390;-74
2020/12/13 09:24:46;;;;;;;27.67;11.13;;;9.50;99.90;;;;;;5055515;28;20048;-74
2020/12/13 09:27:18;;;;;;;22.95;10.48;;;9.40;99.90;;;;;;5067293;28;20476;-72
2020/12/13 09:29:47;;;;;;;25.88;11.10;;;9.40;99.90;;;;;;5053579;28;20036;-72
2020/12/13 09:32:15;;;;;;;23.65;10.95;;;9.50;99.90;;;;;;5056352;28;20025;-72
2020/12/13 09:34:41;;;;;;;22.70;10.95;;;9.50;99.90;;;;;;5055053;28;20024;-72
2020/12/13 09:37:12;;;;;;;23.90;11.18;;;9.40;99.90;;;;;;5055523;28;20103;-73
2020/12/13 09:39:38;;;;;;;34.15;11.15;;;9.40;99.90;;;;;;5057605;28;20044;-72
2020/12/13 09:42:04;;;;;;;31.35;11.63;;;9.50;99.90;;;;;;5060303;28;20032;-72
2020/12/13 09:44:30;;;;;;;27.25;10.13;;;9.50;99.90;;;;;;5055362;28;20039;-72
2020/12/13 09:46:58;;;;;;;26.77;10.05;;;9.50;99.90;;;;;;5054739;28;20017;-72
2020/12/13 09:49:24;;;;;;;23.33;10.05;;;9.40;99.90;;;;;;5055317;28;20044;-72
2020/12/13 09:51:58;;;;;;;21.08;9.15;;;9.40;99.90;;;;;;5052916;28;20478;-73
2020/12/13 09:54:25;;;;;;;23.02;9.63;;;9.50;99.90;;;;;;5058172;28;20352;-71
2020/12/13 09:56:51;;;;;;;20.08;9.10;;;9.50;99.90;;;;;;5056591;28;20032;-72
2020/12/13 09:59:16;;;;;;;25.63;9.60;;;9.60;99.90;;;;;;5055841;28;20091;-72
2020/12/13 10:01:42;;;;;;;21.38;8.35;;;9.60;99.90;;;;;;5061804;28;20551;-72
2020/12/13 10:04:08;;;;;;;17.30;7.60;;;9.60;99.90;;;;;;5052576;28;20053;-72
2020/12/13 10:09:07;;;;;;;14.40;6.28;;;9.50;99.90;;;;;;5060169;28;20087;-72
2020/12/13 10:11:34;;;;;;;16.90;7.07;;;9.60;99.90;;;;;;5058968;28;20032;-72
2020/12/13 10:14:00;;;;;;;16.25;7.15;;;9.50;99.90;;;;;;5059587;28;20104;-72
2020/12/13 10:16:26;;;;;;;15.65;7.03;;;9.50;99.90;;;;;;5055970;28;20150;-72
2020/12/13 10:18:52;;;;;;;12.57;6.15;;;9.50;99.90;;;;;;5058394;28;20029;-72
2020/12/13 10:21:25;;;;;;;22.55;6.90;;;9.40;99.90;;;;;;5054233;28;20040;-72
2020/12/13 10:23:52;;;;;;;16.63;6.35;;;9.50;99.90;;;;;;5053237;28;20037;-72
2020/12/13 10:26:21;;;;;;;17.77;7.75;;;9.50;99.90;;;;;;5057931;28;20370;-72
2020/12/13 10:28:46;;;;;;;18.23;6.10;;;9.60;99.90;;;;;;5056405;28;20024;-72
2020/12/13 10:31:14;;;;;;;20.20;7.38;;;9.60;99.90;;;;;;5054560;28;20382;-72
2020/12/13 10:33:40;;;;;;;17.02;6.40;;;9.60;99.90;;;;;;5054482;28;20103;-72
2020/12/13 10:36:08;;;;;;;19.60;5.93;;;9.60;99.90;;;;;;5055719;28;20079;-72
2020/12/13 10:38:34;;;;;;;17.10;6.25;;;9.50;99.90;;;;;;5054972;28;20032;-72
2020/12/13 10:40:59;;;;;;;13.93;5.63;;;9.60;99.90;;;;;;5053920;28;20029;-72
2020/12/13 10:43:25;;;;;;;22.42;6.82;;;9.60;99.90;;;;;;5058495;28;20405;-72
2020/12/13 10:45:50;;;;;;;14.00;6.05;;;9.60;99.90;;;;;;5059080;28;20051;-73
2020/12/13 10:48:16;;;;;;;17.10;6.20;;;9.60;99.90;;;;;;5056761;28;20064;-72
2020/12/13 10:50:41;;;;;;;10.25;6.05;;;9.60;99.90;;;;;;5059866;28;20012;-72
2020/12/13 10:53:07;;;;;;;11.70;6.05;;;9.60;99.90;;;;;;5058817;28;20525;-72
2020/12/13 10:55:33;;;;;;;12.13;6.25;;;9.60;99.90;;;;;;5061031;28;20086;-71
2020/12/13 10:57:58;;;;;;;18.45;7.45;;;9.60;99.90;;;;;;5059716;28;20473;-72
2020/12/13 11:00:24;;;;;;;13.70;6.55;;;9.60;99.90;;;;;;5054460;28;20115;-72
2020/12/13 11:02:53;;;;;;;12.50;5.57;;;9.70;99.90;;;;;;5059207;28;20060;-72
2020/12/13 11:05:19;;;;;;;13.15;5.18;;;9.70;99.90;;;;;;5058181;28;20104;-72
2020/12/13 11:07:44;;;;;;;11.43;4.78;;;9.60;99.90;;;;;;5072481;28;20035;-72
2020/12/13 11:10:10;;;;;;;14.25;4.97;;;9.60;99.90;;;;;;5063828;28;20491;-72
2020/12/13 11:12:36;;;;;;;14.35;4.53;;;9.70;99.90;;;;;;5060068;28;20446;-72
2020/12/13 11:15:02;;;;;;;12.82;4.45;;;9.70;99.90;;;;;;5053876;28;20029;-72
2020/12/13 11:17:27;;;;;;;15.80;5.05;;;9.70;99.90;;;;;;5059964;28;20100;-72
2020/12/13 11:19:53;;;;;;;10.07;4.63;;;9.70;99.90;;;;;;5062044;28;20432;-73
2020/12/13 11:22:18;;;;;;;14.77;4.50;;;9.80;99.90;;;;;;5063066;28;20033;-73
2020/12/13 11:24:45;;;;;;;11.70;4.50;;;9.80;99.90;;;;;;5056157;28;20029;-73
2020/12/13 11:27:10;;;;;;;9.02;4.22;;;9.80;99.90;;;;;;5059023;28;20017;-73
2020/12/13 11:29:36;;;;;;;15.77;3.70;;;9.80;99.90;;;;;;5058005;28;20385;-73
2020/12/13 11:32:02;;;;;;;10.98;3.72;;;9.70;99.90;;;;;;5059405;28;20069;-73
2020/12/13 11:34:28;;;;;;;11.27;4.00;;;9.60;99.90;;;;;;5064055;28;20017;-73
2020/12/13 11:36:53;;;;;;;15.15;4.70;;;9.70;99.90;;;;;;5055016;28;20036;-73
2020/12/13 11:39:19;;;;;;;15.52;4.00;;;9.70;99.90;;;;;;5057148;28;20021;-73
2020/12/13 11:41:45;;;;;;;14.13;4.28;;;9.80;99.90;;;;;;5057414;28;20120;-73
2020/12/13 11:44:10;;;;;;;12.82;4.07;;;9.70;99.90;;;;;;5054618;28;20262;-73
2020/12/13 11:46:36;;;;;;;11.60;5.28;;;9.70;99.90;;;;;;5056720;28;20427;-73
2020/12/13 11:49:01;;;;;;;11.00;4.22;;;9.70;99.90;;;;;;5061114;28;20032;-73
2020/12/13 11:51:27;;;;;;;10.82;3.95;;;9.70;99.90;;;;;;5061459;28;20475;-73
2020/12/13 11:53:53;;;;;;;11.65;4.40;;;9.80;99.90;;;;;;5061796;28;20116;-72
2020/12/13 11:56:20;;;;;;;14.18;4.80;;;9.90;99.90;;;;;;5059014;28;20444;-72
2020/12/13 11:58:45;;;;;;;15.00;4.53;;;9.90;99.90;;;;;;5056553;28;20049;-71
2020/12/13 12:01:11;;;;;;;15.60;4.70;;;10.00;99.90;;;;;;5055464;28;20118;-72
2020/12/13 12:03:37;;;;;;;17.00;4.45;;;9.90;99.90;;;;;;5060036;28;20064;-72
2020/12/13 12:06:03;;;;;;;13.18;4.80;;;9.90;99.90;;;;;;5061068;28;20025;-72
2020/12/13 12:08:28;;;;;;;10.88;4.25;;;10.00;99.90;;;;;;5064242;28;20158;-72
2020/12/13 12:10:54;;;;;;;11.45;4.40;;;9.80;99.90;;;;;;5061386;28;20486;-72
2020/12/13 12:13:19;;;;;;;13.38;4.47;;;9.90;99.90;;;;;;5053780;28;20447;-71
2020/12/13 12:15:45;;;;;;;12.65;4.05;;;10.00;99.90;;;;;;5059246;28;20382;-71
2020/12/13 12:18:10;;;;;;;9.45;3.90;;;10.00;99.90;;;;;;5059453;28;20029;-71
2020/12/13 12:20:36;;;;;;;15.85;4.30;;;10.00;99.90;;;;;;5054194;28;20037;-71
2020/12/13 12:23:02;;;;;;;13.63;4.10;;;10.00;99.90;;;;;;5060963;28;20476;-71
2020/12/13 12:25:27;;;;;;;10.52;3.97;;;10.00;99.90;;;;;;5059190;28;20025;-71
2020/12/13 12:27:53;;;;;;;10.57;4.65;;;10.00;99.90;;;;;;5060163;28;20175;-71
2020/12/13 12:30:19;;;;;;;11.20;4.00;;;10.10;99.90;;;;;;5060788;28;20028;-71
2020/12/13 12:32:45;;;;;;;14.15;4.28;;;10.10;99.90;;;;;;5056108;28;20028;-71
2020/12/13 12:35:10;;;;;;;10.32;3.78;;;10.20;99.90;;;;;;5052200;28;20029;-71
2020/12/13 12:37:36;;;;;;;14.38;4.00;;;10.10;99.90;;;;;;5057542;28;20026;-71
2020/12/13 12:40:02;;;;;;;10.35;3.92;;;10.20;99.90;;;;;;5054713;28;20043;-71
2020/12/13 12:42:30;;;;;;;14.32;4.05;;;10.10;99.90;;;;;;5064561;28;20067;-71